Time;durP1;ratioP1;P1;durP2;ratioP2;P2;SDS_P1;SDS_P2;PMS_P1;PMS_P2;Temp;Humidity;BMP_temperature;BMP_pressure;BME280_temperature;BME280_humidity;BME280_pressure;Samples;Min_cycle;Max_cycle;Signal;HPM_P1;HPM_P2
2022/04/17 00:00:12;;;;;;;;;7.00;7.00;;;;;30.67;19.56;102100.88;4996998;28;45315;-78
2022/04/17 00:02:38;;;;;;;;;10.00;10.00;;;;;30.69;19.25;102100.78;4996520;28;45452;-77
2022/04/17 00:05:05;;;;;;;;;9.33;9.33;;;;;30.69;19.62;102098.97;4996537;28;45392;-77
2022/04/17 00:07:31;;;;;;;;;8.67;8.67;;;;;30.59;19.47;102098.47;4996824;28;45452;-77
2022/04/17 00:09:57;;;;;;;;;9.00;8.00;;;;;30.59;18.80;102100.31;4979064;28;45443;-78
2022/04/17 00:12:23;;;;;;;;;7.00;7.00;;;;;30.51;18.89;102095.19;4996021;28;45328;-77
2022/04/17 00:14:49;;;;;;;;;8.67;8.67;;;;;30.48;19.32;102094.41;4996508;28;46043;-78
2022/04/17 00:17:14;;;;;;;;;8.33;7.00;;;;;30.42;19.19;102096.44;4996181;28;45452;-77
2022/04/17 00:19:39;;;;;;;;;5.33;5.33;;;;;30.44;18.94;102096.41;4996443;28;45629;-77
2022/04/17 00:22:05;;;;;;;;;9.33;6.00;;;;;30.34;19.02;102076.72;4996643;28;45424;-77
2022/04/17 00:24:30;;;;;;;;;6.33;6.33;;;;;30.44;18.85;102091.81;4978443;28;47265;-77
2022/04/17 00:26:57;;;;;;;;;8.67;7.00;;;;;30.34;18.79;102079.47;5015569;28;45443;-77
2022/04/17 00:29:22;;;;;;;;;5.67;5.67;;;;;30.24;19.05;102072.63;5016330;28;45529;-77
2022/04/17 00:31:47;;;;;;;;;7.00;7.00;;;;;30.20;19.42;102073.69;5014383;28;45662;-78
2022/04/17 00:34:13;;;;;;;;;6.33;6.33;;;;;30.16;19.23;102058.38;4995441;28;48006;-77
2022/04/17 00:36:38;;;;;;;;;8.67;7.33;;;;;30.26;18.93;102062.47;4996097;28;45494;-77
2022/04/17 00:39:03;;;;;;;;;6.67;6.67;;;;;30.18;19.46;102061.91;4996428;28;45376;-77
2022/04/17 00:41:29;;;;;;;;;5.00;5.00;;;;;30.21;19.53;102073.63;4996003;28;45680;-77
2022/04/17 00:43:54;;;;;;;;;6.00;6.00;;;;;30.08;19.23;102048.66;4995991;28;49224;-77
2022/04/17 00:46:19;;;;;;;;;10.00;9.00;;;;;30.09;18.87;102061.34;4995561;28;45321;-78
2022/04/17 00:48:45;;;;;;;;;7.33;6.00;;;;;30.20;18.98;102063.63;4996110;28;45416;-77
2022/04/17 00:51:11;;;;;;;;;10.00;8.00;;;;;30.20;18.92;102065.50;4996126;28;45361;-77
2022/04/17 00:53:37;;;;;;;;;6.67;6.67;;;;;30.25;18.80;102072.56;4994460;28;47563;-77
2022/04/17 00:56:03;;;;;;;;;7.67;7.00;;;;;29.92;19.22;102028.34;4995850;28;45315;-76
2022/04/17 00:58:32;;;;;;;;;7.33;6.67;;;;;30.09;18.98;102049.53;4994490;28;45327;-76
2022/04/17 01:00:57;;;;;;;;;5.33;5.33;;;;;30.12;19.62;102060.34;4994222;28;45627;-77
2022/04/17 01:03:23;;;;;;;;;6.00;6.00;;;;;30.01;19.77;102055.31;4995657;28;46142;-77
2022/04/17 01:05:48;;;;;;;;;6.67;6.67;;;;;30.01;19.60;102069.00;4995813;28;45487;-77
2022/04/17 01:08:15;;;;;;;;;7.00;7.00;;;;;29.92;19.37;102042.91;4996013;28;45535;-77
2022/04/17 01:10:41;;;;;;;;;5.67;5.67;;;;;30.04;19.40;102057.94;4995678;28;45558;-77
2022/04/17 01:13:09;;;;;;;;;8.00;6.67;;;;;29.96;19.20;102062.84;4994401;28;47505;-77
2022/04/17 01:15:36;;;;;;;;;7.00;6.00;;;;;30.02;19.09;102067.16;4995368;28;45470;-77
2022/04/17 01:18:02;;;;;;;;;6.00;6.00;;;;;29.91;18.98;102070.34;4995794;28;45514;-77
2022/04/17 01:20:28;;;;;;;;;6.33;4.67;;;;;29.81;18.96;102067.06;4995743;28;45566;-77
2022/04/17 01:26:55;;;;;;;;;5.33;5.33;;;;;29.81;19.07;102068.91;4994116;28;47083;-77
2022/04/17 01:28:26;;;;;;;;;5.33;5.33;;;;;29.77;19.26;102049.00;4979383;28;45854;-77
2022/04/17 01:30:55;;;;;;;;;6.67;6.33;;;;;29.75;19.32;102048.19;4979497;28;45374;-77
2022/04/17 01:33:21;;;;;;;;;5.00;5.00;;;;;29.65;19.21;102042.19;4979389;28;45313;-77
2022/04/17 01:35:47;;;;;;;;;5.00;5.00;;;;;29.62;19.58;102036.84;4979179;28;45583;-77
2022/04/17 01:38:12;;;;;;;;;5.67;5.67;;;;;29.53;19.43;102020.81;4979448;28;45385;-77
2022/04/17 01:40:38;;;;;;;;;7.00;7.00;;;;;29.62;19.65;102042.31;4961644;28;45341;-77
2022/04/17 01:43:12;;;;;;;;;8.33;7.33;;;;;29.60;19.39;102045.09;4978496;28;48151;-77
2022/04/17 01:45:38;;;;;;;;;8.33;7.33;;;;;29.57;19.52;102027.94;4979195;28;45406;-77
2022/04/17 01:48:04;;;;;;;;;6.00;6.00;;;;;29.51;19.21;102033.66;4979300;28;45398;-77
2022/04/17 01:50:30;;;;;;;;;7.00;6.00;;;;;29.50;19.55;102040.09;4961539;28;45508;-77
2022/04/17 01:52:58;;;;;;;;;7.00;5.33;;;;;29.18;19.52;101987.56;4961575;28;45644;-77
2022/04/17 01:55:23;;;;;;;;;6.00;6.00;;;;;29.39;19.42;102019.50;4979067;28;45319;-76
2022/04/17 01:57:49;;;;;;;;;5.00;5.00;;;;;29.40;19.44;102021.31;4961066;28;45309;-77
2022/04/17 02:00:14;;;;;;;;;7.67;6.00;;;;;29.41;19.47;102016.75;4979354;28;45431;-77
2022/04/17 02:02:39;;;;;;;;;7.00;6.33;;;;;29.47;19.31;102023.81;4978523;28;45457;-77
2022/04/17 02:05:06;;;;;;;;;4.00;4.00;;;;;29.31;19.10;102018.03;4961342;28;45391;-77
2022/04/17 02:07:31;;;;;;;;;6.00;6.00;;;;;29.25;19.19;102002.78;4979076;28;45338;-77
2022/04/17 02:09:56;;;;;;;;;7.00;5.33;;;;;29.34;19.32;102027.03;4981304;28;46580;-77
2022/04/17 02:12:22;;;;;;;;;5.67;5.00;;;;;29.29;19.28;102022.69;4997718;28;56816;-77
2022/04/17 02:14:48;;;;;;;;;6.33;4.00;;;;;29.20;18.98;102013.00;4998432;28;45320;-77
2022/04/17 02:17:13;;;;;;;;;5.00;5.00;;;;;29.15;18.92;102015.88;4998688;28;45435;-77
2022/04/17 02:19:38;;;;;;;;;4.33;4.00;;;;;29.12;19.23;102006.94;4998441;28;45311;-77
2022/04/17 02:22:04;;;;;;;;;4.00;4.00;;;;;29.12;19.36;102017.88;4980639;28;46951;-77
2022/04/17 02:24:29;;;;;;;;;7.67;7.00;;;;;29.07;19.56;102029.88;4998299;28;45856;-77
2022/04/17 02:26:54;;;;;;;;;7.00;6.00;;;;;29.08;19.38;102019.81;4997927;28;45458;-77
2022/04/17 02:29:20;;;;;;;;;5.67;5.00;;;;;29.06;19.58;102022.59;4998487;28;45556;-77
2022/04/17 02:31:45;;;;;;;;;4.00;4.00;;;;;28.98;19.47;102008.34;4998100;28;46014;-77
2022/04/17 02:34:10;;;;;;;;;3.67;3.67;;;;;28.96;19.84;102007.53;4998609;28;45480;-78
2022/04/17 02:36:36;;;;;;;;;4.67;4.67;;;;;29.07;19.38;102023.50;4997786;28;46952;-77
2022/04/17 02:39:01;;;;;;;;;5.00;5.00;;;;;29.00;19.72;102013.75;4998293;28;45312;-77
2022/04/17 02:41:26;;;;;;;;;6.00;4.33;;;;;29.06;19.38;102025.34;4979969;28;47011;-77
2022/04/17 02:43:52;;;;;;;;;5.67;5.00;;;;;29.00;19.53;102005.56;4998247;28;45275;-78
2022/04/17 02:47:42;;;;;;;;;5.00;5.00;;;;;28.89;19.46;102003.25;4998189;28;45435;-78
2022/04/17 02:49:03;;;;;;;;;4.00;4.00;;;;;28.79;19.35;101999.06;4998017;28;45364;-77
2022/04/17 02:51:28;;;;;;;;;5.67;5.67;;;;;28.82;19.38;101998.94;4979906;28;47528;-77
2022/04/17 02:53:53;;;;;;;;;6.00;5.00;;;;;28.82;19.27;101999.88;4998054;28;45444;-77
2022/04/17 02:56:18;;;;;;;;;5.00;5.00;;;;;28.60;19.57;101969.69;4997703;28;45369;-77
2022/04/17 02:58:44;;;;;;;;;5.00;5.00;;;;;28.68;19.25;101989.47;4997920;28;45574;-77
2022/04/17 03:06:37;;;;;;;;;5.00;4.00;;;;;28.61;19.74;101990.59;4997592;28;45484;-77
2022/04/17 03:09:03;;;;;;;;;5.67;5.67;;;;;28.63;19.74;101996.03;4997750;28;45433;-78
2022/04/17 03:11:29;;;;;;;;;5.00;5.00;;;;;28.52;20.30;101974.56;4981620;28;46368;-77
2022/04/17 03:13:54;;;;;;;;;6.67;5.33;;;;;28.50;19.61;101973.72;4976416;28;45900;-77
2022/04/17 03:16:19;;;;;;;;;3.67;3.67;;;;;28.56;19.83;101988.06;4978088;28;45777;-77
2022/04/17 03:18:45;;;;;;;;;6.00;6.00;;;;;28.52;19.80;101967.28;4977941;28;45220;-77
2022/04/17 03:21:11;;;;;;;;;6.00;6.00;;;;;28.51;19.55;101978.22;4977824;28;45308;-77
2022/04/17 03:23:36;;;;;;;;;7.00;5.00;;;;;28.46;19.57;101972.06;4977787;28;45327;-78
2022/04/17 03:26:02;;;;;;;;;5.33;5.33;;;;;28.53;19.33;101984.53;5000549;28;52816;-77
2022/04/17 03:28:27;;;;;;;;;4.67;4.67;;;;;28.39;19.40;101966.81;5017191;28;45389;-77
2022/04/17 03:30:52;;;;;;;;;7.00;6.00;;;;;28.36;19.19;101976.97;4999194;28;48127;-78
2022/04/17 03:33:18;;;;;;;;;6.00;4.67;;;;;28.33;19.18;101975.22;4999331;28;45405;-78
2022/04/17 03:35:43;;;;;;;;;5.00;4.33;;;;;28.21;19.44;101962.03;5017174;28;45345;-78
2022/04/17 03:38:09;;;;;;;;;6.00;6.00;;;;;28.05;18.92;101934.41;5016853;28;45571;-78
2022/04/17 03:40:34;;;;;;;;;5.00;5.00;;;;;28.17;18.92;101964.00;5016583;28;45435;-78
2022/04/17 03:43:00;;;;;;;;;7.00;7.00;;;;;28.12;18.99;101941.44;4998925;28;45376;-78
2022/04/17 03:45:25;;;;;;;;;6.33;6.00;;;;;28.20;19.27;101966.59;5017186;28;45404;-78
2022/04/17 03:47:51;;;;;;;;;8.00;6.33;;;;;28.24;19.32;101972.81;5016014;28;45376;-78
2022/04/17 03:50:16;;;;;;;;;7.00;7.00;;;;;28.06;19.46;101928.91;5016763;28;45418;-78
2022/04/17 03:52:43;;;;;;;;;5.00;5.00;;;;;28.25;19.59;101971.88;4998512;28;45351;-77
2022/04/17 03:55:10;;;;;;;;;5.00;5.00;;;;;28.27;19.59;101967.28;5016930;28;45357;-77
2022/04/17 03:57:35;;;;;;;;;8.00;7.00;;;;;28.08;18.97;101927.97;5016666;28;45554;-78
2022/04/17 04:00:02;;;;;;;;;6.67;5.33;;;;;28.32;19.44;101976.19;5016595;28;46171;-77
2022/04/17 04:02:29;;;;;;;;;8.67;5.67;;;;;28.24;19.27;101968.28;4998645;28;45606;-77
2022/04/17 04:04:54;;;;;;;;;5.00;5.00;;;;;28.26;19.79;101981.00;5016837;28;45472;-77
2022/04/17 04:07:20;;;;;;;;;6.00;6.00;;;;;28.14;19.88;101952.28;4998486;28;45445;-78
2022/04/17 04:09:45;;;;;;;;;5.00;5.00;;;;;28.11;19.74;101952.41;5015977;28;49564;-77
2022/04/17 04:12:11;;;;;;;;;5.00;4.67;;;;;28.07;19.76;101967.97;5016331;28;45469;-78
2022/04/17 04:14:36;;;;;;;;;4.00;4.00;;;;;28.04;19.77;101965.38;4998907;28;45407;-77
2022/04/17 04:17:02;;;;;;;;;7.00;7.00;;;;;28.00;19.96;101947.31;5015044;28;45376;-78
2022/04/17 04:19:27;;;;;;;;;6.00;5.33;;;;;28.11;19.74;101966.03;5016519;28;45337;-77
2022/04/17 04:21:52;;;;;;;;;4.33;4.33;;;;;28.02;19.64;101957.22;4998101;28;45357;-77
2022/04/17 04:24:19;;;;;;;;;5.67;5.00;;;;;27.98;19.49;101960.97;5016089;28;45341;-77
2022/04/17 04:28:32;;;;;;;;;5.67;5.67;;;;;27.96;19.29;101962.88;5012590;28;45617;-77
2022/04/17 04:29:31;;;;;;;;;5.67;5.67;;;;;27.92;19.32;101953.03;5015943;28;46388;-77
2022/04/17 04:31:57;;;;;;;;;4.00;4.00;;;;;27.79;19.57;101948.91;5016050;28;45348;-77
2022/04/17 04:34:22;;;;;;;;;4.00;4.00;;;;;27.85;19.21;101955.06;5016283;28;45431;-77
2022/04/17 04:36:47;;;;;;;;;5.00;5.00;;;;;27.76;19.19;101949.91;5015777;28;45391;-78
2022/04/17 04:39:13;;;;;;;;;6.00;5.00;;;;;27.76;19.10;101943.59;5015748;28;53392;-77
2022/04/17 04:41:38;;;;;;;;;7.00;4.67;;;;;27.81;19.55;101958.84;5014656;28;46108;-77
2022/04/17 04:44:03;;;;;;;;;6.67;5.00;;;;;27.81;19.66;101964.28;5015664;28;50220;-77
2022/04/17 04:46:29;;;;;;;;;7.00;5.33;;;;;27.77;19.67;101962.63;5016122;28;45367;-77
2022/04/17 04:51:38;;;;;;;;;5.00;5.00;;;;;27.77;19.38;101957.16;5015982;28;45485;-77
2022/04/17 04:54:07;;;;;;;;;6.00;4.00;;;;;27.65;19.42;101941.22;5016054;28;45434;-77
2022/04/17 04:56:32;;;;;;;;;5.00;5.00;;;;;27.62;19.81;101942.19;5015953;28;45336;-77
2022/04/17 04:58:57;;;;;;;;;4.00;4.00;;;;;27.69;19.85;101954.72;5014516;28;45803;-77
2022/04/17 05:01:23;;;;;;;;;7.00;5.67;;;;;27.62;19.86;101942.19;5015788;28;45364;-77
2022/04/17 05:03:48;;;;;;;;;6.00;5.00;;;;;27.57;19.70;101938.75;5015849;28;45261;-77
2022/04/17 05:06:14;;;;;;;;;4.33;4.33;;;;;27.54;19.76;101945.19;5016034;28;45330;-77
2022/04/17 05:08:39;;;;;;;;;7.00;6.67;;;;;27.59;19.79;101950.50;5015443;28;45356;-77
2022/04/17 05:11:05;;;;;;;;;6.00;6.00;;;;;27.58;19.52;101945.09;5013969;28;45364;-77
2022/04/17 05:13:30;;;;;;;;;5.33;5.33;;;;;27.62;19.74;101958.56;5014315;28;45306;-76
2022/04/17 05:15:56;;;;;;;;;7.00;6.33;;;;;27.55;19.40;101943.34;5015581;28;45363;-77
2022/04/17 05:18:22;;;;;;;;;7.00;7.00;;;;;27.59;19.90;101969.56;5015323;28;45741;-76
2022/04/17 05:20:47;;;;;;;;;6.00;6.00;;;;;27.60;19.33;101965.91;5013858;28;45542;-77
2022/04/17 05:23:17;;;;;;;;;6.00;6.00;;;;;27.62;19.38;101958.56;5014399;28;45273;-77
2022/04/17 05:25:49;;;;;;;;;4.00;4.00;;;;;27.65;19.26;101972.13;5006091;28;45299;-77
2022/04/17 05:28:15;;;;;;;;;6.50;5.50;;;;;27.58;18.95;101970.53;4995630;28;45461;-77
2022/04/17 05:30:42;;;;;;;;;3.00;3.00;;;;;27.36;19.06;101935.78;4995541;28;45271;-77
2022/04/17 05:33:08;;;;;;;;;6.00;5.00;;;;;27.41;19.05;101948.38;4995569;28;45314;-77
2022/04/17 05:35:33;;;;;;;;;6.67;6.00;;;;;27.49;19.19;101954.47;4995367;28;45230;-77
2022/04/17 05:37:59;;;;;;;;;6.00;6.00;;;;;27.54;19.09;101971.56;4995395;28;46238;-77
2022/04/17 05:40:24;;;;;;;;;6.00;6.00;;;;;27.53;18.67;101976.13;4995381;28;45274;-77
2022/04/17 05:42:50;;;;;;;;;5.67;5.67;;;;;27.45;18.59;101963.69;4995367;28;45204;-77
2022/04/17 05:45:15;;;;;;;;;6.00;4.00;;;;;27.60;18.99;101973.22;4995466;28;45275;-78
2022/04/17 05:47:41;;;;;;;;;4.67;4.67;;;;;27.64;19.10;101983.06;4977812;28;47514;-77
2022/04/17 05:50:07;;;;;;;;;3.00;3.00;;;;;27.61;18.79;101964.06;4977285;28;46014;-77
2022/04/17 05:52:32;;;;;;;;;7.33;6.00;;;;;27.64;19.39;101972.16;4977691;28;45334;-77
2022/04/17 05:54:58;;;;;;;;;5.00;5.00;;;;;27.73;18.80;101969.13;4995550;28;45451;-77
2022/04/17 05:57:24;;;;;;;;;6.00;4.00;;;;;27.72;18.46;101973.69;4995278;28;46227;-77
2022/04/17 05:59:49;;;;;;;;;6.67;6.00;;;;;27.77;18.62;101983.53;4995215;28;45436;-77
2022/04/17 06:02:15;;;;;;;;;6.00;5.00;;;;;27.73;18.23;101980.03;4995566;28;45382;-77
2022/04/17 06:04:41;;;;;;;;;4.33;4.00;;;;;27.53;18.00;101945.25;4994958;28;45801;-77
2022/04/17 06:07:06;;;;;;;;;4.33;4.33;;;;;27.60;17.86;101955.00;4994999;28;46497;-77
2022/04/17 06:09:32;;;;;;;;;4.00;4.00;;;;;27.55;17.82;101974.25;4977540;28;45633;-78
2022/04/17 06:11:57;;;;;;;;;4.33;4.33;;;;;27.56;17.41;101975.13;4998390;28;45296;-78
2022/04/17 06:14:22;;;;;;;;;6.33;5.00;;;;;27.39;17.01;101968.38;4998476;28;46363;-77
2022/04/17 06:16:48;;;;;;;;;4.67;4.67;;;;;27.51;17.64;101982.56;4998263;28;45349;-76
2022/04/17 06:19:14;;;;;;;;;4.00;4.00;;;;;27.39;17.88;101982.00;4997979;28;45330;-77
2022/04/17 06:21:40;;;;;;;;;4.67;4.67;;;;;27.16;17.52;101943.72;4980834;28;45357;-78
2022/04/17 06:24:06;;;;;;;;;6.00;6.00;;;;;27.34;17.88;101975.81;4980518;28;45293;-77
2022/04/17 06:26:32;;;;;;;;;5.00;5.00;;;;;27.19;17.09;101958.09;5013743;28;45386;-77
2022/04/17 06:29:03;;;;;;;;;5.67;4.67;;;;;27.26;17.64;101982.41;5016632;28;45539;-77
2022/04/17 06:31:29;;;;;;;;;4.00;4.00;;;;;27.33;17.69;101976.75;5017964;28;45318;-77
2022/04/17 06:33:54;;;;;;;;;4.00;4.00;;;;;27.19;17.79;101947.22;5017509;28;45538;-77
2022/04/17 06:36:19;;;;;;;;;4.67;4.00;;;;;27.21;17.60;101947.16;5017634;28;49416;-77
2022/04/17 06:38:45;;;;;;;;;4.00;4.00;;;;;27.32;17.39;101968.63;5016603;28;45447;-77
2022/04/17 06:41:10;;;;;;;;;4.33;4.33;;;;;27.28;17.45;101961.47;5017875;28;45715;-77
2022/04/17 06:43:36;;;;;;;;;4.00;4.00;;;;;27.22;17.30;101947.09;5017924;28;45419;-77
2022/04/17 06:46:02;;;;;;;;;4.67;4.67;;;;;27.42;17.81;101980.16;5017237;28;46423;-77
2022/04/17 06:48:27;;;;;;;;;5.00;5.00;;;;;27.48;17.51;101978.13;5016925;28;45597;-77
2022/04/17 06:50:53;;;;;;;;;4.00;4.00;;;;;27.46;17.63;101965.47;5017653;28;45435;-77
2022/04/17 06:53:19;;;;;;;;;5.00;5.00;;;;;27.30;17.49;101946.88;5017743;28;45325;-78
2022/04/17 06:55:47;;;;;;;;;5.33;4.67;;;;;27.42;17.48;101961.94;5017467;28;45773;-78
2022/04/17 06:58:12;;;;;;;;;4.67;4.67;;;;;27.39;17.31;101968.38;5015847;28;45646;-77
2022/04/17 07:00:38;;;;;;;;;5.33;5.33;;;;;27.41;17.75;101965.59;5015819;28;45276;-77
2022/04/17 07:03:03;;;;;;;;;4.67;4.67;;;;;27.55;17.87;101973.34;5016845;28;45333;-77
2022/04/17 07:05:29;;;;;;;;;6.33;5.67;;;;;27.55;17.35;101976.06;5017040;28;46538;-77
2022/04/17 07:08:04;;;;;;;;;5.00;4.67;;;;;27.61;17.80;101967.69;5015520;28;46073;-77
2022/04/17 07:10:30;;;;;;;;;4.00;4.00;;;;;27.70;17.79;101967.38;5017424;28;45487;-77
2022/04/17 07:12:56;;;;;;;;;4.33;4.33;;;;;27.75;17.48;101939.97;5017270;28;45564;-77
2022/04/17 07:15:25;;;;;;;;;3.33;3.33;;;;;27.87;17.35;101958.63;5017295;28;45624;-77
2022/04/17 07:17:52;;;;;;;;;5.00;4.67;;;;;27.88;17.42;101951.34;5016653;28;45468;-77
2022/04/17 07:20:18;;;;;;;;;6.00;5.00;;;;;27.93;17.20;101946.59;5017175;28;45427;-77
2022/04/17 07:22:43;;;;;;;;;4.67;4.67;;;;;27.89;17.56;101932.19;5016092;28;45372;-77
2022/04/17 07:25:11;;;;;;;;;5.00;4.00;;;;;28.00;17.57;101939.13;5016616;28;45510;-77
2022/04/17 07:27:38;;;;;;;;;3.00;3.00;;;;;28.00;17.33;101931.88;5015588;28;45412;-77
2022/04/17 07:30:15;;;;;;;;;4.00;4.00;;;;;28.10;17.74;101928.78;5015687;28;45408;-77
2022/04/17 07:32:42;;;;;;;;;5.33;5.33;;;;;28.23;17.56;101932.88;5016895;28;45470;-77
2022/04/17 07:35:08;;;;;;;;;4.67;4.67;;;;;28.29;17.39;101939.94;5016529;28;46503;-77
2022/04/17 07:37:35;;;;;;;;;5.67;5.67;;;;;28.20;17.30;101922.94;5015723;28;46058;-77
2022/04/17 07:40:02;;;;;;;;;5.00;5.00;;;;;28.18;17.11;101918.50;5015659;28;45483;-77
2022/04/17 07:42:28;;;;;;;;;3.67;3.67;;;;;28.00;17.39;101880.03;5016934;28;45376;-77
2022/04/17 07:44:53;;;;;;;;;6.00;5.00;;;;;28.12;17.28;101930.53;5014993;28;47028;-77
2022/04/17 07:47:19;;;;;;;;;6.00;5.00;;;;;28.12;17.28;101913.25;5015345;28;45683;-78
2022/04/17 07:49:44;;;;;;;;;6.00;5.00;;;;;28.19;17.47;101914.81;5015457;28;45390;-78
2022/04/17 07:52:10;;;;;;;;;6.00;5.00;;;;;28.27;17.48;101915.44;5015309;28;45480;-78
2022/04/17 07:54:35;;;;;;;;;5.00;5.00;;;;;28.38;17.21;101924.13;5016551;28;46004;-78
2022/04/17 07:57:01;;;;;;;;;5.00;5.00;;;;;28.32;17.34;101907.94;5015165;28;45414;-78
2022/04/17 07:59:26;;;;;;;;;4.33;4.33;;;;;28.48;17.09;101927.38;5015211;28;45413;-77
2022/04/17 08:02:01;;;;;;;;;5.00;5.00;;;;;28.58;17.29;101919.75;5016338;28;45280;-78
2022/04/17 08:04:27;;;;;;;;;3.33;2.67;;;;;28.51;17.34;101897.22;5016562;28;46218;-77
2022/04/17 08:06:52;;;;;;;;;5.33;5.33;;;;;28.55;17.32;101896.16;5015047;28;45391;-77
2022/04/17 08:09:18;;;;;;;;;3.00;3.00;;;;;28.76;17.14;101912.69;5016292;28;48125;-77
2022/04/17 08:11:43;;;;;;;;;4.00;4.00;;;;;28.76;17.03;101893.56;5015799;28;50162;-77
2022/04/17 08:14:08;;;;;;;;;5.00;4.00;;;;;28.93;16.69;101917.50;5015840;28;45483;-77
2022/04/17 08:16:33;;;;;;;;;4.67;4.67;;;;;28.86;16.82;101889.53;5016390;28;45305;-77
2022/04/17 08:18:59;;;;;;;;;5.00;3.67;;;;;28.91;16.49;101886.63;5016259;28;45349;-78
2022/04/17 08:21:24;;;;;;;;;4.00;4.00;;;;;28.96;16.97;101883.69;5014991;28;45420;-77
2022/04/17 08:23:49;;;;;;;;;4.00;4.00;;;;;29.06;16.33;101901.50;5015527;28;60451;-77
2022/04/17 08:26:15;;;;;;;;;4.33;4.33;;;;;29.11;15.87;101893.13;5015932;28;49390;-78
2022/04/17 08:28:40;;;;;;;;;4.67;4.00;;;;;29.12;15.73;101870.31;5014752;28;45387;-78
2022/04/17 08:31:06;;;;;;;;;5.00;3.67;;;;;29.23;15.99;101870.75;5016272;28;45414;-77
2022/04/17 08:33:32;;;;;;;;;4.00;4.00;;;;;29.36;16.03;101874.75;5016063;28;45607;-77
2022/04/17 08:35:59;;;;;;;;;3.67;3.00;;;;;29.36;15.86;101866.56;5015882;28;45452;-77
2022/04/17 08:38:24;;;;;;;;;3.00;3.00;;;;;29.29;15.51;101862.31;5016034;28;45547;-78
2022/04/17 08:40:50;;;;;;;;;4.67;4.67;;;;;29.20;15.26;101858.09;5016055;28;45403;-77
2022/04/17 08:43:18;;;;;;;;;4.00;4.00;;;;;29.33;15.69;101869.44;5015507;28;45494;-78
2022/04/17 08:45:46;;;;;;;;;5.33;4.00;;;;;29.40;15.66;101878.28;5016003;28;45311;-78
2022/04/17 08:48:11;;;;;;;;;5.00;3.67;;;;;29.46;15.93;101866.19;5015926;28;45851;-78
2022/04/17 08:50:37;;;;;;;;;2.67;2.67;;;;;29.60;15.36;101875.53;5015765;28;45269;-78
2022/04/17 08:53:03;;;;;;;;;3.33;3.33;;;;;29.60;15.04;101880.13;5015829;28;45502;-78
2022/04/17 08:55:28;;;;;;;;;2.00;2.00;;;;;29.62;15.51;101858.19;5014522;28;45366;-78
2022/04/17 08:57:54;;;;;;;;;3.00;3.00;;;;;29.78;15.40;101882.06;5015743;28;46231;-78
2022/04/17 09:00:20;;;;;;;;;2.67;2.67;;;;;29.78;14.97;101872.97;5015652;28;45618;-78
2022/04/17 09:02:46;;;;;;;;;3.00;2.00;;;;;29.81;14.38;101867.38;5015888;28;45514;-78
2022/04/17 09:05:14;;;;;;;;;2.00;2.00;;;;;29.77;14.96;101855.69;5015431;28;45505;-77
2022/04/17 09:07:50;;;;;;;;;3.67;3.67;;;;;29.85;14.75;101869.03;5015939;28;45285;-78
2022/04/17 09:10:30;;;;;;;;;2.33;2.33;;;;;29.87;14.66;101867.16;5014148;28;45578;-78
2022/04/17 09:12:57;;;;;;;;;3.00;3.00;;;;;29.96;14.51;101863.09;5013785;28;46505;-78
2022/04/17 09:15:29;;;;;;;;;3.00;3.00;;;;;30.03;14.81;101856.38;5015395;28;45404;-78
2022/04/17 09:17:54;;;;;;;;;2.00;2.00;;;;;30.07;14.48;101854.38;5014262;28;45491;-78
2022/04/17 09:20:22;;;;;;;;;2.33;2.33;;;;;29.92;14.60;101821.28;5015340;28;45788;-78
2022/04/17 09:22:49;;;;;;;;;3.00;3.00;;;;;30.16;14.43;101856.72;5015647;28;46480;-78
2022/04/17 09:25:15;;;;;;;;;2.00;2.00;;;;;30.15;14.17;101838.50;5029914;28;45356;-78
2022/04/17 09:28:01;;;;;;;;;4.00;3.00;;;;;30.24;14.60;101840.81;5013717;28;45435;-78
2022/04/17 09:30:34;;;;;;;;;3.33;3.00;;;;;30.35;14.49;101845.81;5015433;28;45555;-78
2022/04/17 09:33:09;;;;;;;;;1.00;1.00;;;;;30.45;14.30;101855.38;5015007;28;45479;-78
2022/04/17 09:35:35;;;;;;;;;2.67;2.00;;;;;30.47;14.01;101843.47;5015382;28;45355;-78
2022/04/17 09:38:05;;;;;;;;;3.00;3.00;;;;;30.42;14.26;101828.13;5013923;28;45343;-78
2022/04/17 09:40:31;;;;;;;;;2.00;2.00;;;;;30.45;14.22;101821.66;5015296;28;45424;-78
2022/04/17 09:43:17;;;;;;;;;3.00;3.00;;;;;30.55;14.05;101822.97;5013672;28;47501;-78
2022/04/17 09:46:05;;;;;;;;;1.67;1.00;;;;;30.66;13.72;101829.75;5016819;28;45435;-77
2022/04/17 09:48:39;;;;;;;;;2.33;2.33;;;;;30.70;14.26;101820.44;5018880;28;45260;-77
2022/04/17 09:51:23;;;;;;;;;2.00;2.00;;;;;30.84;14.02;101822.50;5018763;28;45481;-77
2022/04/17 09:54:03;;;;;;;;;5.00;4.00;;;;;30.76;13.57;101795.50;5018549;28;46060;-77
2022/04/17 09:56:38;;;;;;;;;2.00;2.00;;;;;31.01;13.81;101825.31;5018162;28;45487;-77
2022/04/17 09:59:18;;;;;;;;;2.00;2.00;;;;;31.02;13.59;101816.13;5018666;28;45380;-78
2022/04/17 10:01:49;;;;;;;;;5.00;4.00;;;;;30.98;14.09;101805.38;5018625;28;45419;-77
2022/04/17 10:04:19;;;;;;;;;3.00;2.00;;;;;30.97;13.47;101788.06;5017020;28;47250;-78
2022/04/17 10:06:58;;;;;;;;;3.33;2.67;;;;;31.10;13.33;101799.31;5017024;28;45463;-77
2022/04/17 10:09:24;;;;;;;;;3.33;3.00;;;;;31.25;13.78;101803.09;5018097;28;45399;-77
2022/04/17 10:11:51;;;;;;;;;3.33;3.00;;;;;31.18;13.48;101801.63;5016395;28;45373;-77
2022/04/17 10:14:17;;;;;;;;;2.00;2.00;;;;;31.18;13.42;101798.91;5017767;28;45567;-77
2022/04/17 10:16:46;;;;;;;;;5.33;5.33;;;;;31.25;13.09;101794.88;5018329;28;45436;-77
2022/04/17 10:19:24;;;;;;;;;2.00;2.00;;;;;31.45;13.16;101797.47;5018120;28;45349;-77
2022/04/17 10:21:50;;;;;;;;;3.00;3.00;;;;;31.43;12.86;101779.31;5018409;28;45674;-77
2022/04/17 10:24:17;;;;;;;;;4.33;2.00;;;;;31.41;12.67;101782.13;5017797;28;45879;-78
2022/04/17 10:26:51;;;;;;;;;2.00;2.00;;;;;31.45;12.73;101789.25;5016298;28;45366;-78
2022/04/17 10:29:36;;;;;;;;;3.00;3.00;;;;;31.44;12.96;101779.22;5016773;28;45785;-78
2022/04/17 10:32:05;;;;;;;;;2.33;2.33;;;;;31.56;12.72;101787.75;5018195;28;45391;-77
2022/04/17 10:34:50;;;;;;;;;2.00;2.00;;;;;31.44;12.19;101761.91;5017905;28;45620;-78
2022/04/17 10:37:15;;;;;;;;;2.67;2.00;;;;;31.61;12.59;101777.47;5017768;28;45412;-78
2022/04/17 10:39:47;;;;;;;;;3.00;2.00;;;;;31.60;12.45;101748.28;5017727;28;45351;-78
2022/04/17 10:42:13;;;;;;;;;2.00;2.00;;;;;31.62;12.32;101752.72;5018180;28;45344;-78
2022/04/17 10:44:41;;;;;;;;;2.33;2.33;;;;;31.64;11.82;101759.00;5017923;28;45363;-78
2022/04/17 10:47:16;;;;;;;;;2.00;2.00;;;;;31.60;12.32;101756.50;5018066;28;45251;-78
2022/04/17 10:50:00;;;;;;;;;2.33;1.67;;;;;31.69;12.87;101731.31;5009716;28;45361;-77
2022/04/17 10:52:31;;;;;;;;;2.00;2.00;;;;;31.66;12.29;101728.75;4996602;28;45377;-78
2022/04/17 10:55:08;;;;;;;;;3.33;2.00;;;;;31.80;12.15;101726.13;4997695;28;46679;-77
2022/04/17 10:57:48;;;;;;;;;2.00;2.00;;;;;31.83;12.95;101721.44;4997994;28;45365;-77
2022/04/17 11:00:28;;;;;;;;;3.00;3.00;;;;;32.03;12.26;101739.53;4996756;28;46033;-77
2022/04/17 11:02:54;;;;;;;;;2.00;2.00;;;;;31.92;11.88;101726.41;4998059;28;45296;-78
2022/04/17 11:08:25;;;;;;;;;3.00;3.00;;;;;32.05;12.80;101705.53;4997241;28;45313;-78
2022/04/17 11:11:02;;;;;;;;;2.67;2.67;;;;;32.13;12.48;101708.75;4997819;28;45430;-78
2022/04/17 11:13:27;;;;;;;;;2.00;2.00;;;;;32.12;11.90;101697.84;4997727;28;45230;-78
2022/04/17 11:15:57;;;;;;;;;2.00;2.00;;;;;32.29;12.69;101710.63;4997658;28;46171;-78
2022/04/17 11:18:29;;;;;;;;;2.33;2.33;;;;;32.25;12.14;101711.78;4997381;28;45454;-78
2022/04/17 11:20:56;;;;;;;;;1.67;1.67;;;;;32.25;11.73;101696.19;4997775;28;45331;-78
2022/04/17 11:23:49;;;;;;;;;2.00;2.00;;;;;32.41;12.51;101701.69;4995873;28;45548;-78
2022/04/17 11:26:15;;;;;;;;;1.33;1.33;;;;;32.35;11.97;101682.81;4984072;28;45403;-78
2022/04/17 11:28:41;;;;;;;;;1.33;1.33;;;;;32.46;11.74;101684.91;4977863;28;45561;-78
2022/04/17 11:31:07;;;;;;;;;2.67;2.67;;;;;32.40;12.18;101680.66;4960261;28;45546;-78
2022/04/17 11:33:32;;;;;;;;;2.00;2.00;;;;;32.46;11.95;101671.19;4977857;28;45479;-78
2022/04/17 11:35:58;;;;;;;;;2.00;2.00;;;;;32.70;11.87;101695.47;4959927;28;47417;-78
2022/04/17 11:38:24;;;;;;;;;1.33;1.33;;;;;32.72;12.02;101691.66;4977255;28;45745;-78